createdAt,value
2019-02-05T00:02:30.828Z,12.10
2019-02-05T00:05:02.241Z,10.53
2019-02-05T00:07:35.016Z,11.22
2019-02-05T00:10:06.541Z,17.00
2019-02-05T00:12:38.038Z,17.00
2019-02-05T00:15:09.545Z,13.60
2019-02-05T00:17:41.027Z,12.30
2019-02-05T00:20:12.842Z,11.43
2019-02-05T00:22:44.433Z,13.23
2019-02-05T00:25:16.184Z,11.67
2019-02-05T00:27:47.776Z,10.43
2019-02-05T00:30:19.342Z,11.70
2019-02-05T00:32:51.257Z,11.00
2019-02-05T00:35:22.667Z,11.73
2019-02-05T00:37:54.213Z,12.60
2019-02-05T00:40:25.686Z,11.93
2019-02-05T00:42:57.148Z,11.23
2019-02-05T00:45:28.748Z,11.97
2019-02-05T00:48:00.243Z,11.87
2019-02-05T00:50:31.619Z,13.67
2019-02-05T00:53:03.126Z,11.73
2019-02-05T00:55:34.608Z,11.77
2019-02-05T00:58:06.436Z,13.53
2019-02-05T01:00:37.891Z,11.88
2019-02-05T01:03:09.412Z,14.50
2019-02-05T01:05:41.122Z,11.67
2019-02-05T01:08:12.613Z,13.10
2019-02-05T01:10:44.111Z,10.60
2019-02-05T01:13:15.595Z,12.80
2019-02-05T01:15:47.063Z,12.00
2019-02-05T01:18:18.645Z,9.57
2019-02-05T01:20:51.160Z,11.33
2019-02-05T01:23:22.660Z,10.67
2019-02-05T01:25:54.195Z,12.57
2019-02-05T01:28:25.594Z,13.17
2019-02-05T01:30:57.070Z,10.27
2019-02-05T01:33:28.515Z,11.57
2019-02-05T01:36:00.023Z,11.43
2019-02-05T01:38:31.639Z,11.40
2019-02-05T01:41:03.062Z,13.10
2019-02-05T01:43:34.501Z,12.03
2019-02-05T01:46:06.340Z,12.00
2019-02-05T01:48:37.852Z,11.43
2019-02-05T01:51:09.317Z,13.80
2019-02-05T01:53:40.877Z,14.38
2019-02-05T01:56:12.243Z,11.80
2019-02-05T01:58:43.652Z,10.67
2019-02-05T02:01:15.128Z,13.17
2019-02-05T02:03:46.641Z,11.03
2019-02-05T02:06:18.087Z,11.83
2019-02-05T02:08:49.641Z,10.13
2019-02-05T02:11:21.209Z,12.03
2019-02-05T02:13:52.684Z,12.50
2019-02-05T02:16:24.270Z,11.07
2019-02-05T02:18:55.680Z,12.70
2019-02-05T02:21:27.128Z,11.33
2019-02-05T02:23:58.693Z,10.73
2019-02-05T02:26:30.201Z,10.70
2019-02-05T02:29:01.825Z,10.77
2019-02-05T02:31:33.341Z,13.43
2019-02-05T02:34:04.914Z,16.40
2019-02-05T02:36:36.306Z,13.67
2019-02-05T02:39:08.328Z,12.40
2019-02-05T02:41:39.715Z,13.43
2019-02-05T02:44:11.207Z,12.23
2019-02-05T02:46:42.699Z,12.37
2019-02-05T02:49:14.183Z,13.23
2019-02-05T02:51:45.589Z,13.70
2019-02-05T02:54:17.104Z,12.27
2019-02-05T02:56:48.559Z,13.53
2019-02-05T02:59:20.044Z,11.90
2019-02-05T03:01:51.508Z,11.03
2019-02-05T03:04:23.383Z,12.60
2019-02-05T03:06:55.101Z,12.27
2019-02-05T03:09:26.572Z,14.47
2019-02-05T03:11:58.027Z,13.00
2019-02-05T03:14:29.580Z,12.93
2019-02-05T03:17:01.056Z,12.43
2019-02-05T03:19:32.573Z,13.33
2019-02-05T03:22:04.177Z,12.33
2019-02-05T03:24:35.690Z,14.85
2019-02-05T03:27:17.358Z,15.03
2019-02-05T03:29:40.329Z,12.03
2019-02-05T03:32:12.023Z,12.20
2019-02-05T03:34:43.497Z,12.23
2019-02-05T03:37:15.045Z,12.17
2019-02-05T03:39:46.553Z,10.83
2019-02-05T03:42:18.027Z,12.63
2019-02-05T03:44:49.539Z,16.23
2019-02-05T03:47:21.136Z,12.97
2019-02-05T03:49:52.849Z,11.77
2019-02-05T03:52:28.953Z,13.03
2019-02-05T03:55:32.975Z,10.63
2019-02-05T03:58:26.172Z,13.87
2019-02-05T04:01:26.920Z,11.43
2019-02-05T04:04:31.369Z,11.83
2019-02-05T04:07:48.232Z,11.23
2019-02-05T04:10:49.053Z,13.97
2019-02-05T04:13:50.424Z,10.40
2019-02-05T04:17:20.761Z,12.60
2019-02-05T04:20:18.519Z,13.72
2019-02-05T04:23:54.668Z,14.73
2019-02-05T04:27:07.420Z,11.30
2019-02-05T04:30:19.775Z,13.97
2019-02-05T04:33:25.354Z,14.53
2019-02-05T04:36:51.812Z,15.47
2019-02-05T04:39:58.863Z,16.07
2019-02-05T04:43:17.376Z,11.93
2019-02-05T04:46:14.988Z,12.13
2019-02-05T04:49:42.117Z,12.13
2019-02-05T04:52:44.096Z,11.97
2019-02-05T04:55:56.643Z,10.33
2019-02-05T04:59:06.584Z,10.17
2019-02-05T05:02:02.142Z,12.47
2019-02-05T05:05:09.051Z,11.03
2019-02-05T05:07:58.296Z,9.90
2019-02-05T05:10:29.833Z,9.80
2019-02-05T05:13:01.341Z,12.40
2019-02-05T05:15:32.825Z,13.47
2019-02-05T05:18:04.429Z,11.03
2019-02-05T05:20:36.050Z,11.83
2019-02-05T05:23:07.638Z,10.87
2019-02-05T05:25:39.154Z,10.80
2019-02-05T05:28:10.675Z,12.45
2019-02-05T05:30:42.230Z,11.30
2019-02-05T05:33:14.000Z,10.80
2019-02-05T05:35:45.589Z,10.37
2019-02-05T05:38:18.355Z,10.93
2019-02-05T05:40:49.880Z,14.53
2019-02-05T05:43:21.337Z,11.27
2019-02-05T05:45:52.920Z,11.90
2019-02-05T05:48:24.495Z,9.83
2019-02-05T05:50:56.022Z,8.60
2019-02-05T05:53:27.511Z,11.23
2019-02-05T05:55:58.982Z,9.93
2019-02-05T05:58:30.494Z,11.77
2019-02-05T06:01:01.976Z,11.20
2019-02-05T06:03:33.528Z,10.30
2019-02-05T06:06:05.379Z,11.95
2019-02-05T06:08:36.980Z,13.40
2019-02-05T06:11:08.562Z,10.00
2019-02-05T06:13:40.328Z,9.87
2019-02-05T06:16:11.928Z,10.47
2019-02-05T06:18:43.382Z,11.77
2019-02-05T06:21:15.059Z,12.47
2019-02-05T06:23:46.649Z,10.23
2019-02-05T06:26:20.213Z,11.07
2019-02-05T06:28:51.441Z,11.97
2019-02-05T06:31:23.916Z,11.30
2019-02-05T06:33:55.508Z,12.10
2019-02-05T06:36:27.019Z,10.23
2019-02-05T06:38:58.552Z,10.80
2019-02-05T06:41:30.220Z,11.33
2019-02-05T06:44:01.739Z,9.33
2019-02-05T06:46:33.160Z,13.07
2019-02-05T06:49:04.942Z,10.60
2019-02-05T06:51:36.513Z,12.00
2019-02-05T06:54:08.157Z,12.07
2019-02-05T06:56:42.338Z,11.90
2019-02-05T06:59:12.914Z,12.90
2019-02-05T07:01:44.453Z,14.73
2019-02-05T07:04:15.921Z,10.60
2019-02-05T07:06:47.942Z,10.77
2019-02-05T07:09:19.548Z,12.07
2019-02-05T07:11:51.024Z,13.87
2019-02-05T07:14:22.597Z,13.53
2019-02-05T07:16:54.146Z,18.85
2019-02-05T07:19:25.570Z,16.40
2019-02-05T07:21:57.069Z,14.83
2019-02-05T07:24:28.561Z,13.13
2019-02-05T07:27:00.058Z,17.63
2019-02-05T07:29:31.583Z,13.43
2019-02-05T07:32:03.064Z,15.27
2019-02-05T07:34:34.762Z,14.73
2019-02-05T07:37:06.339Z,13.33
2019-02-05T07:39:37.801Z,13.10
2019-02-05T07:42:09.287Z,13.00
2019-02-05T07:44:40.762Z,15.03
2019-02-05T07:47:12.240Z,13.73
2019-02-05T07:49:44.904Z,14.70
2019-02-05T07:52:16.404Z,13.67
2019-02-05T07:54:48.146Z,14.93
2019-02-05T07:57:19.680Z,15.07
2019-02-05T07:59:51.196Z,18.90
2019-02-05T08:02:23.033Z,15.10
2019-02-05T08:04:54.557Z,14.90
2019-02-05T08:07:26.029Z,16.80
2019-02-05T08:09:57.524Z,17.27
2019-02-05T08:12:29.011Z,13.93
2019-02-05T08:15:00.535Z,17.90
2019-02-05T08:17:31.993Z,17.97
2019-02-05T08:20:03.475Z,17.33
2019-02-05T08:22:34.969Z,14.27
2019-02-05T08:25:08.291Z,13.47
2019-02-05T08:27:39.798Z,17.40
2019-02-05T08:30:14.784Z,19.43
2019-02-05T08:32:46.459Z,19.07
2019-02-05T08:35:18.135Z,16.83
2019-02-05T08:37:49.732Z,18.67
2019-02-05T08:40:21.336Z,22.33
2019-02-05T08:42:52.906Z,16.77
2019-02-05T08:45:26.539Z,16.57
2019-02-05T08:47:58.032Z,20.60
2019-02-05T08:50:29.765Z,15.97
2019-02-05T08:53:01.529Z,19.80
2019-02-05T08:55:33.031Z,21.60
2019-02-05T08:58:06.706Z,13.80
2019-02-05T09:00:39.242Z,17.20
2019-02-05T09:03:11.255Z,18.90
2019-02-05T09:05:42.813Z,15.32
2019-02-05T09:08:14.337Z,14.33
2019-02-05T09:10:45.894Z,13.18
2019-02-05T09:13:17.552Z,14.95
2019-02-05T09:15:49.042Z,15.28
2019-02-05T09:18:20.506Z,14.63
2019-02-05T09:20:51.992Z,14.40
2019-02-05T09:23:23.468Z,13.35
2019-02-05T09:25:55.149Z,12.13
2019-02-05T09:28:26.633Z,12.53
2019-02-05T09:30:58.219Z,11.43
2019-02-05T09:33:29.842Z,13.58
2019-02-05T09:36:01.314Z,11.90
2019-02-05T09:38:32.957Z,11.08
2019-02-05T09:41:04.825Z,11.80
2019-02-05T09:43:36.323Z,11.00
2019-02-05T09:46:07.833Z,10.63
2019-02-05T09:48:39.310Z,11.20
2019-02-05T09:51:10.817Z,13.38
2019-02-05T09:53:42.591Z,14.33
2019-02-05T09:56:14.109Z,13.43
2019-02-05T09:58:45.601Z,12.58
2019-02-05T10:01:17.107Z,12.33
2019-02-05T10:03:48.737Z,14.35
2019-02-05T10:06:20.533Z,11.25
2019-02-05T10:08:52.182Z,14.83
2019-02-05T10:11:23.762Z,13.18
2019-02-05T10:13:55.276Z,13.45
2019-02-05T10:16:26.755Z,10.58
2019-02-05T10:18:58.240Z,12.35
2019-02-05T10:21:30.141Z,13.22
2019-02-05T10:24:02.601Z,12.98
2019-02-05T10:26:34.079Z,12.47
2019-02-05T10:29:05.788Z,12.07
2019-02-05T10:31:37.168Z,12.50
2019-02-05T10:34:08.659Z,12.50
2019-02-05T10:36:40.174Z,12.63
2019-02-05T10:39:13.235Z,11.08
2019-02-05T10:41:44.831Z,13.10
2019-02-05T10:44:16.456Z,14.33
2019-02-05T10:46:47.913Z,11.00
2019-02-05T10:49:19.514Z,13.58
2019-02-05T10:51:50.976Z,14.43
2019-02-05T10:54:22.368Z,14.18
2019-02-05T10:56:53.902Z,11.70
2019-02-05T10:59:25.351Z,12.00
2019-02-05T11:01:57.120Z,12.73
2019-02-05T11:04:28.596Z,13.90
2019-02-05T11:07:00.082Z,10.63
2019-02-05T11:09:31.499Z,12.75
2019-02-05T11:12:02.952Z,12.68
2019-02-05T11:14:34.471Z,13.15
2019-02-05T11:17:06.182Z,14.13
2019-02-05T11:19:37.657Z,13.15
2019-02-05T11:22:09.135Z,12.90
2019-02-05T11:24:40.652Z,12.05
2019-02-05T11:27:12.267Z,10.63
2019-02-05T11:29:43.727Z,15.32
2019-02-05T11:32:15.517Z,10.65
2019-02-05T11:34:46.999Z,14.65
2019-02-05T11:37:18.693Z,10.58
2019-02-05T11:39:50.209Z,10.18
2019-02-05T11:42:22.676Z,12.18
2019-02-05T11:44:54.189Z,9.60
2019-02-05T11:47:25.714Z,12.55
2019-02-05T11:49:57.163Z,9.88
2019-02-05T11:52:28.683Z,9.85
2019-02-05T11:55:00.353Z,11.80
2019-02-05T11:57:32.164Z,10.30
2019-02-05T12:00:03.960Z,12.60
2019-02-05T12:02:35.528Z,10.53
2019-02-05T12:05:07.495Z,11.65
2019-02-05T12:07:38.963Z,10.43
2019-02-05T12:10:11.426Z,13.35
2019-02-05T12:12:42.921Z,11.93
2019-02-05T12:15:14.699Z,9.98
2019-02-05T12:17:46.512Z,17.37
2019-02-05T12:20:18.251Z,11.90
2019-02-05T12:22:49.910Z,9.93
2019-02-05T12:25:22.120Z,12.58
2019-02-05T12:27:53.651Z,10.95
2019-02-05T12:30:28.608Z,10.58
2019-02-05T12:33:01.881Z,11.73
2019-02-05T12:35:33.389Z,12.18
2019-02-05T12:38:06.020Z,15.70
2019-02-05T12:40:37.583Z,13.80
2019-02-05T12:43:09.135Z,11.00
2019-02-05T12:45:40.725Z,9.23
2019-02-05T12:48:12.181Z,13.13
2019-02-05T12:50:45.589Z,11.40
2019-02-05T12:53:17.066Z,9.43
2019-02-05T12:55:48.809Z,8.58
2019-02-05T12:58:20.264Z,10.08
2019-02-05T13:00:59.405Z,11.03
2019-02-05T13:03:26.433Z,10.55
2019-02-05T13:05:57.934Z,8.08
2019-02-05T13:08:29.384Z,9.08
2019-02-05T13:11:00.882Z,7.65
2019-02-05T13:13:32.281Z,8.18
2019-02-05T13:16:04.043Z,6.80
2019-02-05T13:18:35.424Z,8.73
2019-02-05T13:21:06.819Z,7.78
2019-02-05T13:23:38.179Z,8.58
2019-02-05T13:26:09.784Z,11.95
2019-02-05T13:28:41.549Z,10.28
2019-02-05T13:31:13.035Z,10.25
2019-02-05T13:33:44.443Z,8.40
2019-02-05T13:36:15.893Z,8.13
2019-02-05T13:38:47.372Z,7.70
2019-02-05T13:41:19.121Z,8.10
2019-02-05T13:43:50.653Z,10.50
2019-02-05T13:46:22.117Z,10.88
2019-02-05T13:48:54.615Z,10.08
2019-02-05T13:51:26.054Z,11.53
2019-02-05T13:53:57.959Z,14.33
2019-02-05T13:56:29.492Z,11.43
2019-02-05T13:59:00.971Z,10.88
2019-02-05T14:01:32.563Z,14.35
2019-02-05T14:04:04.201Z,12.50
2019-02-05T14:06:35.961Z,12.27
2019-02-05T14:09:12.539Z,11.40
2019-02-05T14:11:44.028Z,13.50
2019-02-05T14:14:15.502Z,12.77
2019-02-05T14:16:46.885Z,11.13
2019-02-05T14:19:18.756Z,11.37
2019-02-05T14:21:50.169Z,12.37
2019-02-05T14:24:21.866Z,13.70
2019-02-05T14:26:53.522Z,13.17
2019-02-05T14:29:25.010Z,9.17
2019-02-05T14:31:56.696Z,13.40
2019-02-05T14:34:28.102Z,11.07
2019-02-05T14:36:59.485Z,11.27
2019-02-05T14:39:30.963Z,9.33
2019-02-05T14:42:02.396Z,10.17
2019-02-05T14:44:34.276Z,10.87
2019-02-05T14:47:05.987Z,14.60
2019-02-05T14:49:37.419Z,9.47
2019-02-05T14:52:08.888Z,12.80
2019-02-05T14:54:40.287Z,12.10
2019-02-05T14:57:12.114Z,10.43
2019-02-05T14:59:43.595Z,10.47
2019-02-05T15:02:15.093Z,10.80
2019-02-05T15:04:46.676Z,12.57
2019-02-05T15:07:18.120Z,8.37
2019-02-05T15:09:49.833Z,8.10
2019-02-05T15:12:21.349Z,9.73
2019-02-05T15:14:52.728Z,10.77
2019-02-05T15:17:24.192Z,9.87
2019-02-05T15:19:55.584Z,11.70
2019-02-05T15:22:27.388Z,10.03
2019-02-05T15:24:58.780Z,10.80
2019-02-05T15:27:30.202Z,12.77
2019-02-05T15:30:01.589Z,8.30
2019-02-05T15:33:07.061Z,11.53
2019-02-05T15:35:40.324Z,9.97
2019-02-05T15:38:11.852Z,9.30
2019-02-05T15:40:43.223Z,9.30
2019-02-05T15:43:14.678Z,9.90
2019-02-05T15:45:46.180Z,10.00
2019-02-05T15:48:17.567Z,11.40
2019-02-05T15:50:48.988Z,10.00
2019-02-05T15:53:20.497Z,8.80
2019-02-05T15:55:52.003Z,10.27
2019-02-05T15:58:23.461Z,10.85
2019-02-05T16:00:55.075Z,11.33
2019-02-05T16:03:26.555Z,12.67
2019-02-05T16:05:58.048Z,10.40
2019-02-05T16:08:29.475Z,13.10
2019-02-05T16:11:01.054Z,11.23
2019-02-05T16:13:32.585Z,10.53
2019-02-05T16:16:04.058Z,11.53
2019-02-05T16:18:35.508Z,10.03
2019-02-05T16:21:06.990Z,11.00
2019-02-05T16:23:38.668Z,9.93
2019-02-05T16:26:10.157Z,14.30
2019-02-05T16:28:41.667Z,11.63
2019-02-05T16:31:13.120Z,9.20
2019-02-05T16:33:44.784Z,11.40
2019-02-05T16:36:16.377Z,10.73
2019-02-05T16:38:47.831Z,12.23
2019-02-05T16:41:19.222Z,10.03
2019-02-05T16:43:50.691Z,12.87
2019-02-05T16:46:22.460Z,9.97
2019-02-05T16:48:53.891Z,9.90
2019-02-05T16:51:25.263Z,9.48
2019-02-05T16:53:56.688Z,10.70
2019-02-05T16:56:28.178Z,11.53
2019-02-05T16:59:00.038Z,13.07
2019-02-05T17:01:31.494Z,10.03
2019-02-05T17:04:03.021Z,10.63
2019-02-05T17:06:34.497Z,12.47
2019-02-05T17:09:13.779Z,13.67
2019-02-05T17:11:45.277Z,13.00
2019-02-05T17:14:16.644Z,10.10
2019-02-05T17:16:49.175Z,11.30
2019-02-05T17:19:20.552Z,11.33
2019-02-05T17:21:52.095Z,12.73
2019-02-05T17:24:23.838Z,9.53
2019-02-05T17:26:55.320Z,11.90
2019-02-05T17:29:26.696Z,13.80
2019-02-05T17:31:58.146Z,12.87
2019-02-05T17:34:29.604Z,10.03
2019-02-05T17:37:01.149Z,14.43
2019-02-05T17:39:32.633Z,10.68
2019-02-05T17:42:04.056Z,14.27
2019-02-05T17:44:35.556Z,11.63
2019-02-05T17:47:07.029Z,11.47
2019-02-05T17:49:38.810Z,10.00
2019-02-05T17:52:10.271Z,12.73
2019-02-05T17:54:41.744Z,12.50
2019-02-05T17:57:13.142Z,10.83
2019-02-05T17:59:44.568Z,14.07
2019-02-05T18:02:16.202Z,10.00
2019-02-05T18:04:47.616Z,12.33
2019-02-05T18:07:19.112Z,12.73
2019-02-05T18:09:50.598Z,15.67
2019-02-05T18:12:22.071Z,12.45
2019-02-05T18:14:53.853Z,12.87
2019-02-05T18:17:25.295Z,17.50
2019-02-05T18:19:57.005Z,12.07
2019-02-05T18:22:28.456Z,15.13
2019-02-05T18:24:59.908Z,17.00
2019-02-05T18:27:31.949Z,13.57
2019-02-05T18:30:03.568Z,13.00
2019-02-05T18:32:34.962Z,13.80
2019-02-05T18:35:07.526Z,13.57
2019-02-05T18:37:38.927Z,12.13
2019-02-05T18:40:11.960Z,16.63
2019-02-05T18:42:43.466Z,14.40
2019-02-05T18:45:15.856Z,14.60
2019-02-05T18:47:47.241Z,13.33
2019-02-05T18:50:20.849Z,13.47
2019-02-05T18:52:52.339Z,17.07
2019-02-05T18:55:25.581Z,14.70
2019-02-05T18:58:08.462Z,13.33
2019-02-05T19:00:35.111Z,15.57
2019-02-05T19:03:14.885Z,15.13
2019-02-05T19:05:41.348Z,14.30
2019-02-05T19:08:15.863Z,20.90
2019-02-05T19:10:46.233Z,16.67
2019-02-05T19:13:17.694Z,15.37
2019-02-05T19:15:49.672Z,13.83
2019-02-05T19:18:21.155Z,13.83
2019-02-05T19:20:53.576Z,16.13
2019-02-05T19:23:25.041Z,17.90
2019-02-05T19:26:19.269Z,14.03
2019-02-05T19:28:50.780Z,19.50
2019-02-05T19:31:40.478Z,14.67
2019-02-05T19:34:12.160Z,15.23
2019-02-05T19:36:43.558Z,14.13
2019-02-05T19:39:14.938Z,20.40
2019-02-05T19:41:46.356Z,17.43
2019-02-05T19:44:17.915Z,19.07
2019-02-05T19:46:54.001Z,18.27
2019-02-05T19:49:27.983Z,15.50
2019-02-05T19:51:59.464Z,15.93
2019-02-05T19:54:31.321Z,17.10
2019-02-05T19:57:02.933Z,17.00
2019-02-05T19:59:34.634Z,16.97
2019-02-05T20:02:06.389Z,19.07
2019-02-05T20:04:37.832Z,15.50
2019-02-05T20:07:09.302Z,16.70
2019-02-05T20:09:40.839Z,16.53
2019-02-05T20:12:12.296Z,17.27
2019-02-05T20:14:43.743Z,20.23
2019-02-05T20:17:15.192Z,19.93
2019-02-05T20:19:46.631Z,17.53
2019-02-05T20:22:18.081Z,19.40
2019-02-05T20:24:49.479Z,14.90
2019-02-05T20:27:20.873Z,19.80
2019-02-05T20:29:52.574Z,15.23
2019-02-05T20:32:24.032Z,17.50
2019-02-05T20:34:55.484Z,17.27
2019-02-05T20:37:26.840Z,15.97
2019-02-05T20:39:58.258Z,17.40
2019-02-05T20:42:30.168Z,17.53
2019-02-05T20:45:01.684Z,18.33
2019-02-05T20:47:33.164Z,16.17
2019-02-05T20:50:05.699Z,20.63
2019-02-05T20:52:37.137Z,22.97
2019-02-05T20:55:10.456Z,21.83
2019-02-05T20:57:41.855Z,21.90
2019-02-05T21:00:18.666Z,23.40
2019-02-05T21:02:50.145Z,23.63
2019-02-05T21:05:21.931Z,21.73
2019-02-05T21:07:53.400Z,19.50
2019-02-05T21:10:25.030Z,16.57
2019-02-05T21:12:56.605Z,20.00
2019-02-05T21:15:28.129Z,21.07
2019-02-05T21:17:59.508Z,23.60
2019-02-05T21:20:33.915Z,18.30
2019-02-05T21:23:05.929Z,22.30
2019-02-05T21:25:37.308Z,21.80
2019-02-05T21:28:08.709Z,19.20
2019-02-05T21:30:40.127Z,19.77
2019-02-05T21:33:11.585Z,18.33
2019-02-05T21:35:43.286Z,19.03
2019-02-05T21:38:14.732Z,25.40
2019-02-05T21:40:46.295Z,29.00
2019-02-05T21:43:18.743Z,29.97
2019-02-05T21:45:50.271Z,29.37
2019-02-05T21:48:22.042Z,27.60
2019-02-05T21:50:53.525Z,26.23
2019-02-05T21:53:24.981Z,23.53
2019-02-05T21:55:57.441Z,22.27
2019-02-05T21:58:28.828Z,32.48
2019-02-05T22:01:00.977Z,35.10
2019-02-05T22:03:33.537Z,29.43
2019-02-05T22:06:05.718Z,26.57
2019-02-05T22:08:37.203Z,31.90
2019-02-05T22:11:08.723Z,32.80
2019-02-05T22:13:40.145Z,29.03
2019-02-05T22:16:11.633Z,29.63
2019-02-05T22:18:43.496Z,29.37
2019-02-05T22:21:15.494Z,31.50
2019-02-05T22:23:46.975Z,32.47
2019-02-05T22:26:18.449Z,32.50
2019-02-05T22:28:49.904Z,31.63
2019-02-05T22:31:21.361Z,24.30
2019-02-05T22:33:52.792Z,24.70
2019-02-05T22:36:24.380Z,22.73
2019-02-05T22:38:57.579Z,20.40
2019-02-05T22:41:28.956Z,19.33
2019-02-05T22:44:00.429Z,23.53
2019-02-05T22:46:31.908Z,19.50
2019-02-05T22:49:03.723Z,18.73
2019-02-05T22:51:35.362Z,20.02
2019-02-05T22:54:06.993Z,30.27
2019-02-05T22:56:38.488Z,27.37
2019-02-05T22:59:10.479Z,21.33
2019-02-05T23:02:01.485Z,19.90
2019-02-05T23:05:07.540Z,17.30
2019-02-05T23:07:39.071Z,17.60
2019-02-05T23:10:44.325Z,15.53
2019-02-05T23:13:17.888Z,17.90
2019-02-05T23:15:50.723Z,23.70
2019-02-05T23:18:22.208Z,23.57
2019-02-05T23:20:54.090Z,20.07
2019-02-05T23:23:25.729Z,17.83
2019-02-05T23:25:57.272Z,19.80
2019-02-05T23:28:28.980Z,21.20
2019-02-05T23:31:00.448Z,21.40
2019-02-05T23:33:31.897Z,26.70
2019-02-05T23:36:03.510Z,21.70
2019-02-05T23:38:34.985Z,21.63
2019-02-05T23:41:06.427Z,21.60
2019-02-05T23:43:37.884Z,19.53
2019-02-05T23:46:09.435Z,21.35
2019-02-05T23:48:40.972Z,23.63
2019-02-05T23:51:12.427Z,22.53
2019-02-05T23:53:43.839Z,22.03
2019-02-05T23:56:25.473Z,18.60
2019-02-05T23:58:48.684Z,18.20
